Time;durP1;ratioP1;P1;durP2;ratioP2;P2;SDS_P1;SDS_P2;PMS_P1;PMS_P2;Temp;Humidity;BMP_temperature;BMP_pressure;BME280_temperature;BME280_humidity;BME280_pressure;Samples;Min_cycle;Max_cycle;Signal;HPM_P1;HPM_P2
2021/10/19 00:01:05;;;;;;;35.20;18.95;;;10.20;99.90;;;;;;5032330;28;20033;-71
2021/10/19 00:03:31;;;;;;;28.23;18.42;;;10.10;99.90;;;;;;5032868;28;20037;-71
2021/10/19 00:05:56;;;;;;;29.67;20.88;;;10.20;99.90;;;;;;5032502;28;20021;-71
2021/10/19 00:08:22;;;;;;;42.88;18.90;;;10.20;99.90;;;;;;5022202;28;20032;-71
2021/10/19 00:10:47;;;;;;;35.55;19.10;;;10.20;99.90;;;;;;5032957;28;20040;-71
2021/10/19 00:13:13;;;;;;;30.50;18.10;;;10.20;99.90;;;;;;5033035;28;20021;-72
2021/10/19 00:15:39;;;;;;;28.85;19.00;;;10.20;99.90;;;;;;5032215;28;20083;-72
2021/10/19 00:18:04;;;;;;;37.78;19.15;;;10.20;99.90;;;;;;5031525;28;20021;-71
2021/10/19 00:20:30;;;;;;;22.40;16.73;;;10.20;99.90;;;;;;5032883;28;20033;-71
2021/10/19 00:22:56;;;;;;;31.95;19.25;;;10.20;99.90;;;;;;5032624;28;20033;-71
2021/10/19 00:25:21;;;;;;;36.60;19.10;;;10.20;99.90;;;;;;5033063;28;20050;-71
2021/10/19 00:27:47;;;;;;;37.80;19.25;;;10.20;99.90;;;;;;5031969;28;20439;-71
2021/10/19 00:30:15;;;;;;;34.97;20.83;;;10.20;99.90;;;;;;5032673;28;20503;-71
2021/10/19 00:32:41;;;;;;;33.25;18.17;;;10.20;99.90;;;;;;5032188;28;20477;-71
2021/10/19 00:35:07;;;;;;;27.08;18.38;;;10.30;99.90;;;;;;5032751;28;20030;-71
2021/10/19 00:37:33;;;;;;;25.15;18.08;;;10.40;99.90;;;;;;5032011;28;20112;-71
2021/10/19 00:39:59;;;;;;;32.47;19.33;;;10.40;99.90;;;;;;5032638;28;20022;-71
2021/10/19 00:42:24;;;;;;;31.58;18.90;;;10.40;99.90;;;;;;5032234;28;20026;-71
2021/10/19 00:44:50;;;;;;;29.98;19.67;;;10.40;99.90;;;;;;5032394;28;20022;-72
2021/10/19 00:47:20;;;;;;;25.65;18.67;;;10.40;99.90;;;;;;5032544;28;20539;-71
2021/10/19 00:49:50;;;;;;;29.58;19.52;;;10.40;99.90;;;;;;5032623;28;20028;-71
2021/10/19 00:52:17;;;;;;;32.25;19.30;;;10.40;99.90;;;;;;5032269;28;20025;-71
2021/10/19 00:54:43;;;;;;;31.30;19.52;;;10.40;99.90;;;;;;5032547;28;20022;-71
2021/10/19 00:57:09;;;;;;;29.85;18.65;;;10.40;99.90;;;;;;5032324;28;20079;-71
2021/10/19 00:59:40;;;;;;;29.10;19.50;;;10.40;99.90;;;;;;5035404;28;20037;-71
2021/10/19 01:02:06;;;;;;;28.40;19.55;;;10.40;99.90;;;;;;5036015;28;20055;-71
2021/10/19 01:04:32;;;;;;;30.67;21.67;;;10.40;99.90;;;;;;5035911;28;20017;-71
2021/10/19 01:06:57;;;;;;;48.83;20.42;;;10.50;99.90;;;;;;5034484;28;20033;-71
2021/10/19 01:09:23;;;;;;;32.03;19.63;;;10.50;99.90;;;;;;5035312;28;20030;-72
2021/10/19 01:11:48;;;;;;;35.67;21.70;;;10.50;99.90;;;;;;5034618;28;20021;-71
2021/10/19 01:14:14;;;;;;;40.20;22.15;;;10.50;99.90;;;;;;5035676;28;20029;-71
2021/10/19 01:16:39;;;;;;;33.95;20.38;;;10.50;99.90;;;;;;5035481;28;20096;-71
2021/10/19 01:19:05;;;;;;;38.35;21.88;;;10.50;99.90;;;;;;5035653;28;20021;-71
2021/10/19 01:21:30;;;;;;;35.75;20.42;;;10.50;99.90;;;;;;5034610;28;20029;-71
2021/10/19 01:23:56;;;;;;;41.35;21.55;;;10.50;99.90;;;;;;5035452;28;20604;-71
2021/10/19 01:26:22;;;;;;;36.60;21.83;;;10.50;99.90;;;;;;5035852;28;20053;-71
2021/10/19 01:28:48;;;;;;;48.08;21.15;;;10.40;99.90;;;;;;5034811;28;20516;-71
2021/10/19 01:31:14;;;;;;;37.08;23.38;;;10.40;99.90;;;;;;5034561;28;20029;-71
2021/10/19 01:33:40;;;;;;;34.17;21.70;;;10.40;99.90;;;;;;5030287;28;20022;-71
2021/10/19 01:36:07;;;;;;;42.05;24.00;;;10.40;99.90;;;;;;5015570;28;20036;-71
2021/10/19 01:38:34;;;;;;;39.40;22.48;;;10.50;99.90;;;;;;5034520;28;20112;-71
2021/10/19 01:41:01;;;;;;;32.67;23.00;;;10.50;99.90;;;;;;5035471;28;20026;-71
2021/10/19 01:43:28;;;;;;;39.03;22.50;;;10.50;99.90;;;;;;5034599;28;20378;-71
2021/10/19 01:46:00;;;;;;;36.42;22.27;;;10.60;99.90;;;;;;5034185;28;20071;-71
2021/10/19 01:48:28;;;;;;;35.00;22.52;;;10.60;99.90;;;;;;5032224;28;20025;-71
2021/10/19 01:50:54;;;;;;;36.38;22.55;;;10.70;99.90;;;;;;5034313;28;20041;-71
2021/10/19 01:53:21;;;;;;;35.30;22.13;;;10.70;99.90;;;;;;5036191;28;20065;-72
2021/10/19 01:55:47;;;;;;;32.65;21.98;;;10.70;99.90;;;;;;5034846;28;20068;-71
2021/10/19 01:58:13;;;;;;;35.67;22.50;;;10.70;99.90;;;;;;5034873;28;20053;-71
2021/10/19 02:00:40;;;;;;;30.23;21.45;;;10.70;99.90;;;;;;5034991;28;20029;-71
2021/10/19 02:03:07;;;;;;;34.65;22.27;;;10.70;99.90;;;;;;5024898;28;20029;-71
2021/10/19 02:05:33;;;;;;;37.28;21.33;;;10.70;99.90;;;;;;5034887;28;20422;-71
2021/10/19 02:08:02;;;;;;;37.08;22.67;;;10.70;99.90;;;;;;5033105;28;20034;-71
2021/10/19 02:10:28;;;;;;;34.33;21.05;;;10.70;99.90;;;;;;5034602;28;20105;-71
2021/10/19 02:12:54;;;;;;;32.15;21.17;;;10.70;99.90;;;;;;5033910;28;20152;-71
2021/10/19 02:15:24;;;;;;;40.15;22.30;;;10.70;99.90;;;;;;5034675;28;20040;-71
2021/10/19 02:17:50;;;;;;;35.50;22.80;;;10.70;99.90;;;;;;5032591;28;20022;-71
2021/10/19 02:20:15;;;;;;;32.00;22.33;;;10.70;99.90;;;;;;5034851;28;20025;-71
2021/10/19 02:22:41;;;;;;;42.33;23.40;;;10.70;99.90;;;;;;5034450;28;20029;-71
2021/10/19 02:25:07;;;;;;;31.60;23.25;;;10.80;99.90;;;;;;5034319;28;20029;-71
2021/10/19 02:27:33;;;;;;;40.05;23.40;;;10.80;99.90;;;;;;5032627;28;20032;-71
2021/10/19 02:29:58;;;;;;;41.85;22.83;;;10.80;99.90;;;;;;5029542;28;20076;-71
2021/10/19 02:32:24;;;;;;;39.03;24.13;;;10.80;99.90;;;;;;5015224;28;20026;-71
2021/10/19 02:34:49;;;;;;;32.40;22.05;;;10.80;99.90;;;;;;5033647;28;20064;-71
2021/10/19 02:37:15;;;;;;;38.90;23.98;;;10.80;99.90;;;;;;5033675;28;20366;-71
2021/10/19 02:39:40;;;;;;;34.97;22.73;;;10.80;99.90;;;;;;5033863;28;20100;-71
2021/10/19 02:42:06;;;;;;;35.95;24.25;;;10.80;99.90;;;;;;5032166;28;20017;-71
2021/10/19 02:44:31;;;;;;;34.85;22.50;;;10.80;99.90;;;;;;5033934;28;20057;-71
2021/10/19 02:46:57;;;;;;;43.40;25.50;;;10.80;99.90;;;;;;5032967;28;20013;-71
2021/10/19 02:49:22;;;;;;;44.03;25.33;;;10.80;99.90;;;;;;5032295;28;20033;-71
2021/10/19 02:51:48;;;;;;;34.53;23.67;;;10.80;99.90;;;;;;5033523;28;20017;-71
2021/10/19 02:54:14;;;;;;;49.13;24.17;;;10.80;99.90;;;;;;5033878;28;20029;-72
2021/10/19 02:56:39;;;;;;;41.08;24.58;;;10.80;99.90;;;;;;5033335;28;20043;-71
2021/10/19 02:59:05;;;;;;;44.63;25.38;;;10.80;99.90;;;;;;5033682;28;20473;-72
2021/10/19 03:01:34;;;;;;;39.72;26.10;;;10.90;99.90;;;;;;5033165;28;20041;-71
2021/10/19 03:04:00;;;;;;;51.33;26.50;;;10.90;99.90;;;;;;5032780;28;20083;-71
2021/10/19 03:06:26;;;;;;;41.90;24.83;;;10.90;99.90;;;;;;5033675;28;20021;-71
2021/10/19 03:08:51;;;;;;;45.00;25.02;;;10.90;99.90;;;;;;5032616;28;20107;-71
2021/10/19 03:11:17;;;;;;;43.75;25.92;;;10.90;99.90;;;;;;5033589;28;20030;-71
2021/10/19 03:13:42;;;;;;;34.58;24.15;;;10.90;99.90;;;;;;5032237;28;20108;-72
2021/10/19 03:16:08;;;;;;;40.22;25.30;;;10.90;99.90;;;;;;5033047;28;20033;-72
2021/10/19 03:18:33;;;;;;;42.95;27.08;;;10.90;99.90;;;;;;5031997;28;20033;-71
2021/10/19 03:20:59;;;;;;;42.63;25.90;;;10.90;99.90;;;;;;5031698;28;20472;-71
2021/10/19 03:23:25;;;;;;;43.50;27.90;;;10.90;99.90;;;;;;5023250;28;20034;-71
2021/10/19 03:25:50;;;;;;;51.00;24.38;;;11.00;99.90;;;;;;5028461;28;20048;-71
2021/10/19 03:28:16;;;;;;;44.38;26.70;;;10.90;99.90;;;;;;5021586;28;20112;-71
2021/10/19 03:30:42;;;;;;;50.55;29.13;;;10.90;99.90;;;;;;5030379;28;20108;-71
2021/10/19 03:33:08;;;;;;;46.63;27.08;;;11.00;99.90;;;;;;5032439;28;20061;-71
2021/10/19 03:35:33;;;;;;;43.95;26.58;;;11.00;99.90;;;;;;5033421;28;20029;-71
2021/10/19 03:37:59;;;;;;;57.90;28.83;;;11.00;99.90;;;;;;5033100;28;20392;-71
2021/10/19 03:40:25;;;;;;;54.47;28.65;;;11.00;99.90;;;;;;5033230;28;20040;-71
2021/10/19 03:42:50;;;;;;;46.60;27.80;;;11.00;99.90;;;;;;5032357;28;20034;-71
2021/10/19 03:45:17;;;;;;;49.55;27.52;;;11.00;99.90;;;;;;5032553;28;20441;-71
2021/10/19 03:47:43;;;;;;;50.80;28.85;;;10.90;99.90;;;;;;5031749;28;20026;-71
2021/10/19 03:50:10;;;;;;;54.00;27.80;;;11.00;99.90;;;;;;5031700;28;20025;-71
2021/10/19 03:52:35;;;;;;;44.97;27.40;;;11.00;99.90;;;;;;5032925;28;20029;-71
2021/10/19 03:55:01;;;;;;;44.45;29.45;;;11.00;99.90;;;;;;5031838;28;20439;-71
2021/10/19 03:57:27;;;;;;;51.88;30.13;;;11.00;99.90;;;;;;5032827;28;20109;-71
2021/10/19 03:59:53;;;;;;;53.50;31.15;;;10.90;99.90;;;;;;5032565;28;20460;-71
2021/10/19 04:02:18;;;;;;;48.53;30.15;;;10.90;99.90;;;;;;5032597;28;20101;-71
2021/10/19 04:04:44;;;;;;;53.63;30.67;;;11.00;99.90;;;;;;5032049;28;20037;-71
2021/10/19 04:07:11;;;;;;;42.45;28.67;;;11.00;99.90;;;;;;5031579;28;20030;-71
2021/10/19 04:09:37;;;;;;;47.95;29.70;;;11.00;99.90;;;;;;5032824;28;20044;-71
2021/10/19 04:12:02;;;;;;;49.60;29.05;;;11.00;99.90;;;;;;5031643;28;20500;-71
2021/10/19 04:14:29;;;;;;;50.72;30.65;;;11.00;99.90;;;;;;5032785;28;20109;-71
2021/10/19 04:16:54;;;;;;;51.08;29.63;;;11.10;99.90;;;;;;5032312;28;20408;-71
2021/10/19 04:19:20;;;;;;;51.72;30.17;;;11.10;99.90;;;;;;5032731;28;20144;-71
2021/10/19 04:21:47;;;;;;;55.78;29.92;;;11.10;99.90;;;;;;5031561;28;20026;-71
2021/10/19 04:24:14;;;;;;;54.72;29.60;;;11.10;99.90;;;;;;5030326;28;20120;-71
2021/10/19 04:26:40;;;;;;;52.22;31.58;;;11.00;99.90;;;;;;5032253;28;20026;-71
2021/10/19 04:29:05;;;;;;;46.88;30.20;;;11.10;99.90;;;;;;5032677;28;20060;-71
2021/10/19 04:31:31;;;;;;;46.38;27.88;;;11.10;99.90;;;;;;5032442;28;20036;-71
2021/10/19 04:34:00;;;;;;;53.28;31.45;;;11.10;99.90;;;;;;5035156;28;20075;-71
2021/10/19 04:36:26;;;;;;;46.78;28.05;;;11.10;99.90;;;;;;5032455;28;20036;-71
2021/10/19 04:38:52;;;;;;;53.85;30.77;;;11.10;99.90;;;;;;5036739;28;20389;-71
2021/10/19 04:41:17;;;;;;;50.92;31.25;;;11.10;99.90;;;;;;5036259;28;20037;-71
2021/10/19 04:43:43;;;;;;;55.83;31.60;;;11.10;99.90;;;;;;5035738;28;20029;-71
2021/10/19 04:46:09;;;;;;;49.50;31.58;;;11.10;99.90;;;;;;5034870;28;20049;-71
2021/10/19 04:48:34;;;;;;;50.72;30.48;;;11.10;99.90;;;;;;5036053;28;20028;-71
2021/10/19 04:51:00;;;;;;;52.50;31.60;;;11.10;99.90;;;;;;5036246;28;20392;-71
2021/10/19 04:53:25;;;;;;;49.33;30.00;;;11.10;99.90;;;;;;5036191;28;20476;-71
2021/10/19 04:55:51;;;;;;;50.90;30.40;;;11.10;99.90;;;;;;5035937;28;20036;-71
2021/10/19 04:58:17;;;;;;;53.35;30.63;;;11.10;99.90;;;;;;5035755;28;20029;-71
2021/10/19 05:00:43;;;;;;;51.55;29.80;;;11.10;99.90;;;;;;5035506;28;20506;-71
2021/10/19 05:03:09;;;;;;;53.15;30.65;;;11.10;99.90;;;;;;5048986;28;20033;-71
2021/10/19 05:05:35;;;;;;;60.47;33.25;;;11.10;99.90;;;;;;5035972;28;20127;-71
2021/10/19 05:08:00;;;;;;;53.85;30.80;;;11.10;99.90;;;;;;5034941;28;20057;-71
2021/10/19 05:10:26;;;;;;;56.05;32.25;;;11.10;99.90;;;;;;5036272;28;20026;-72
2021/10/19 05:12:51;;;;;;;57.28;33.53;;;11.10;99.90;;;;;;5035861;28;20053;-72
2021/10/19 05:15:17;;;;;;;55.95;32.40;;;11.10;99.90;;;;;;5035708;28;20021;-71
2021/10/19 05:17:44;;;;;;;57.88;34.08;;;11.10;99.90;;;;;;5034274;28;20109;-71
2021/10/19 05:20:10;;;;;;;62.00;32.95;;;11.00;99.90;;;;;;5035845;28;20029;-71
2021/10/19 05:22:36;;;;;;;52.10;33.20;;;11.10;99.90;;;;;;5035442;28;20029;-71
2021/10/19 05:25:03;;;;;;;54.00;33.53;;;11.10;99.90;;;;;;5034945;28;20013;-71
2021/10/19 05:27:28;;;;;;;62.83;33.33;;;11.10;99.90;;;;;;5035468;28;20022;-71
2021/10/19 05:29:54;;;;;;;52.78;30.67;;;11.10;99.90;;;;;;5035499;28;20072;-71
2021/10/19 05:32:19;;;;;;;51.55;33.67;;;11.10;99.90;;;;;;5034172;28;20041;-71
2021/10/19 05:34:45;;;;;;;58.67;33.55;;;11.10;99.90;;;;;;5034724;28;20508;-71
2021/10/19 05:37:10;;;;;;;56.38;32.42;;;11.20;99.90;;;;;;5035299;28;20053;-71
2021/10/19 05:39:36;;;;;;;65.47;33.72;;;11.20;99.90;;;;;;5035336;28;20446;-71
2021/10/19 05:42:04;;;;;;;53.70;32.22;;;11.20;99.90;;;;;;5035336;28;20447;-71
2021/10/19 05:44:29;;;;;;;54.40;31.52;;;11.20;99.90;;;;;;5033699;28;20121;-71
2021/10/19 05:46:55;;;;;;;58.63;35.35;;;11.20;99.90;;;;;;5033819;28;20136;-71
2021/10/19 05:49:21;;;;;;;59.33;33.42;;;11.20;99.90;;;;;;5035185;28;20489;-71
2021/10/19 05:51:48;;;;;;;59.95;31.90;;;11.20;99.90;;;;;;5035104;28;20103;-72
2021/10/19 05:54:15;;;;;;;66.30;35.65;;;11.20;99.90;;;;;;5034581;28;20024;-71
2021/10/19 05:56:41;;;;;;;57.20;30.70;;;11.20;99.90;;;;;;5035051;28;20045;-71
2021/10/19 05:59:06;;;;;;;57.13;32.90;;;11.20;99.90;;;;;;5034764;28;20060;-71
2021/10/19 06:01:32;;;;;;;60.50;35.13;;;11.20;99.90;;;;;;5034296;28;20036;-71
2021/10/19 06:03:57;;;;;;;58.17;33.67;;;11.20;99.90;;;;;;5030165;28;20030;-71
2021/10/19 06:06:23;;;;;;;55.22;34.90;;;11.20;99.90;;;;;;5034040;28;20029;-71
2021/10/19 06:08:51;;;;;;;54.10;33.45;;;11.20;99.90;;;;;;5033904;28;20044;-71
2021/10/19 06:11:17;;;;;;;55.75;33.42;;;11.20;99.90;;;;;;5034033;28;20022;-71
2021/10/19 06:13:43;;;;;;;63.45;35.45;;;11.20;99.90;;;;;;5034628;28;20481;-71
2021/10/19 06:16:09;;;;;;;65.43;36.05;;;11.20;99.90;;;;;;5034592;28;20080;-71
2021/10/19 06:18:34;;;;;;;52.15;32.65;;;11.20;99.90;;;;;;5034431;28;20026;-71
2021/10/19 06:21:01;;;;;;;63.60;36.05;;;11.20;99.90;;;;;;5033840;28;20034;-71
2021/10/19 06:23:27;;;;;;;65.32;35.55;;;11.20;99.90;;;;;;5034324;28;20030;-71
2021/10/19 06:25:52;;;;;;;64.65;34.90;;;11.20;99.90;;;;;;5033150;28;20025;-71
2021/10/19 06:28:18;;;;;;;56.55;35.42;;;11.20;99.90;;;;;;5033699;28;20045;-71
2021/10/19 06:30:43;;;;;;;57.60;33.85;;;11.20;99.90;;;;;;5033542;28;20026;-71
2021/10/19 06:33:09;;;;;;;69.07;33.85;;;11.20;99.90;;;;;;5034232;28;20160;-71
2021/10/19 06:35:34;;;;;;;64.80;35.75;;;11.20;99.90;;;;;;5034431;28;20060;-71
2021/10/19 06:38:00;;;;;;;58.83;34.25;;;11.30;99.90;;;;;;5033353;28;20152;-71
2021/10/19 06:40:25;;;;;;;66.68;36.38;;;11.20;99.90;;;;;;5033688;28;20508;-71
2021/10/19 06:42:51;;;;;;;58.63;34.30;;;11.20;99.90;;;;;;5030230;28;20116;-71
2021/10/19 06:45:16;;;;;;;62.85;34.63;;;11.20;99.90;;;;;;5033103;28;20029;-71
2021/10/19 06:47:42;;;;;;;58.45;33.28;;;11.30;99.90;;;;;;5032972;28;20052;-71
2021/10/19 06:50:08;;;;;;;55.47;34.60;;;11.30;99.90;;;;;;5033969;28;20036;-71
2021/10/19 06:52:36;;;;;;;59.92;34.40;;;11.30;99.90;;;;;;5033249;28;20022;-71
2021/10/19 06:55:03;;;;;;;56.67;32.40;;;11.30;99.90;;;;;;5033881;28;20017;-71
2021/10/19 06:57:30;;;;;;;56.83;35.13;;;11.30;99.90;;;;;;5033055;28;20018;-71
2021/10/19 06:59:56;;;;;;;54.42;33.88;;;11.30;99.90;;;;;;5033765;28;20021;-71
2021/10/19 07:02:22;;;;;;;56.90;33.72;;;11.30;99.90;;;;;;5033222;28;20026;-71
2021/10/19 07:04:47;;;;;;;68.03;35.92;;;11.40;99.90;;;;;;5032943;28;20033;-71
2021/10/19 07:07:13;;;;;;;53.05;32.20;;;11.40;99.90;;;;;;5032716;28;20026;-71
2021/10/19 07:09:38;;;;;;;52.13;32.38;;;11.40;99.90;;;;;;5033239;28;20025;-71
2021/10/19 07:12:04;;;;;;;53.25;34.53;;;11.40;99.90;;;;;;5033008;28;20485;-71
2021/10/19 07:14:30;;;;;;;61.97;34.97;;;11.40;99.90;;;;;;5032961;28;20448;-71
2021/10/19 07:16:56;;;;;;;53.88;32.75;;;11.40;99.90;;;;;;5033727;28;20033;-72
2021/10/19 07:19:21;;;;;;;56.05;32.05;;;11.40;99.90;;;;;;5033224;28;20078;-72
2021/10/19 07:21:47;;;;;;;52.42;31.17;;;11.40;99.90;;;;;;5032995;28;20021;-71
2021/10/19 07:24:12;;;;;;;60.78;31.60;;;11.40;99.90;;;;;;5032800;28;20481;-71
2021/10/19 07:26:39;;;;;;;60.05;35.47;;;11.40;99.90;;;;;;5032664;28;20128;-71
2021/10/19 07:29:05;;;;;;;62.08;35.35;;;11.40;99.90;;;;;;5032735;28;20104;-71
2021/10/19 07:31:31;;;;;;;59.92;35.22;;;11.40;99.90;;;;;;5032450;28;20017;-71
2021/10/19 07:33:56;;;;;;;62.90;34.67;;;11.40;99.90;;;;;;5031840;28;20022;-71
2021/10/19 07:36:22;;;;;;;73.70;36.70;;;11.50;99.90;;;;;;5033255;28;20083;-71
2021/10/19 07:38:49;;;;;;;55.25;34.75;;;11.50;99.90;;;;;;5032705;28;20029;-71
2021/10/19 07:41:15;;;;;;;61.30;35.33;;;11.50;99.90;;;;;;5033571;28;20416;-71
2021/10/19 07:43:41;;;;;;;57.13;34.80;;;11.60;99.90;;;;;;5029192;28;20113;-71
2021/10/19 07:46:06;;;;;;;59.67;33.97;;;11.60;99.90;;;;;;5032504;28;20491;-72
2021/10/19 07:48:32;;;;;;;60.25;33.75;;;11.80;99.90;;;;;;5033081;28;20017;-71
2021/10/19 07:50:57;;;;;;;55.75;35.47;;;11.70;99.90;;;;;;5033099;28;20025;-72
2021/10/19 07:53:23;;;;;;;58.15;32.97;;;11.80;99.90;;;;;;5032563;28;20021;-72
2021/10/19 07:55:49;;;;;;;57.33;35.47;;;11.90;99.90;;;;;;5033006;28;20104;-72
2021/10/19 07:58:14;;;;;;;56.72;32.83;;;12.00;99.90;;;;;;5032877;28;20481;-72
2021/10/19 08:00:40;;;;;;;60.05;33.65;;;12.10;99.90;;;;;;5032760;28;20114;-72
2021/10/19 08:03:06;;;;;;;57.33;31.98;;;12.20;99.90;;;;;;5029348;28;20021;-71
2021/10/19 08:05:33;;;;;;;65.05;33.60;;;12.20;99.90;;;;;;5032970;28;20449;-71
2021/10/19 08:08:24;;;;;;;57.53;33.58;;;12.30;99.90;;;;;;5033822;28;20057;-71
2021/10/19 08:10:51;;;;;;;59.55;33.30;;;12.30;99.90;;;;;;5027899;28;20073;-71
2021/10/19 08:13:18;;;;;;;59.08;34.55;;;12.30;99.90;;;;;;5036809;28;20025;-72
2021/10/19 08:15:45;;;;;;;56.00;34.05;;;12.30;99.90;;;;;;5035760;28;20034;-72
2021/10/19 08:18:11;;;;;;;58.85;32.85;;;12.30;99.90;;;;;;5036616;28;20029;-72
2021/10/19 08:20:38;;;;;;;54.50;33.65;;;12.40;99.90;;;;;;5036094;28;20030;-72
2021/10/19 08:23:04;;;;;;;58.65;35.50;;;12.40;99.90;;;;;;5036189;28;20542;-71
2021/10/19 08:25:30;;;;;;;62.75;36.05;;;12.40;99.90;;;;;;5035621;28;20026;-71
2021/10/19 08:27:57;;;;;;;59.72;33.58;;;12.50;99.90;;;;;;5036637;28;20029;-71
2021/10/19 08:30:23;;;;;;;53.65;33.90;;;12.50;99.90;;;;;;5036480;28;20017;-72
2021/10/19 08:32:50;;;;;;;60.03;34.00;;;12.60;99.90;;;;;;5036453;28;20032;-71
2021/10/19 08:35:19;;;;;;;55.88;34.92;;;12.70;99.90;;;;;;5035372;28;20387;-72
2021/10/19 08:37:46;;;;;;;58.67;33.85;;;12.60;99.90;;;;;;5036396;28;20021;-72
2021/10/19 08:40:12;;;;;;;50.60;33.75;;;12.60;99.90;;;;;;5036297;28;20013;-71
2021/10/19 08:42:44;;;;;;;62.53;35.22;;;12.70;99.90;;;;;;5036162;28;20152;-71
2021/10/19 08:45:12;;;;;;;57.42;34.35;;;12.70;99.90;;;;;;5036565;28;20520;-71
2021/10/19 08:47:37;;;;;;;56.97;35.00;;;12.80;99.90;;;;;;5036193;28;20389;-72
2021/10/19 08:50:04;;;;;;;55.33;32.33;;;12.80;99.90;;;;;;5034183;28;20017;-72
2021/10/19 08:52:30;;;;;;;55.40;33.05;;;12.80;99.90;;;;;;5035653;28;20025;-72
2021/10/19 08:54:55;;;;;;;53.63;32.70;;;12.90;99.90;;;;;;5036258;28;20394;-71
2021/10/19 08:57:21;;;;;;;53.17;31.33;;;13.00;99.90;;;;;;5035881;28;20121;-71
2021/10/19 08:59:48;;;;;;;56.03;35.13;;;12.90;99.90;;;;;;5035588;28;20500;-71
2021/10/19 09:02:15;;;;;;;53.45;31.15;;;12.90;99.90;;;;;;5035981;28;20056;-72
2021/10/19 09:04:42;;;;;;;61.45;32.35;;;12.90;99.90;;;;;;5035170;28;20437;-72
2021/10/19 09:07:09;;;;;;;55.20;33.15;;;13.00;99.90;;;;;;5034434;28;20056;-72
2021/10/19 09:09:36;;;;;;;53.70;32.00;;;13.00;99.90;;;;;;5036049;28;20071;-72
2021/10/19 09:12:03;;;;;;;57.30;34.75;;;13.00;99.90;;;;;;5034554;28;20104;-72
2021/10/19 09:14:40;;;;;;;56.50;33.45;;;13.00;99.90;;;;;;5034553;28;20072;-71
2021/10/19 09:17:06;;;;;;;53.75;34.58;;;12.90;99.90;;;;;;5016152;28;20026;-72
2021/10/19 09:19:35;;;;;;;62.35;36.42;;;13.00;99.90;;;;;;5033978;28;20076;-72
2021/10/19 09:22:07;;;;;;;65.82;35.40;;;12.90;99.90;;;;;;5035666;28;20026;-71
2021/10/19 09:24:37;;;;;;;61.67;36.60;;;12.90;99.90;;;;;;5035041;28;20025;-72
2021/10/19 09:27:14;;;;;;;61.60;37.65;;;12.90;99.90;;;;;;5034954;28;20500;-71
2021/10/19 09:29:47;;;;;;;66.10;39.17;;;12.80;99.90;;;;;;5035022;28;20021;-72
2021/10/19 09:32:14;;;;;;;61.65;37.30;;;12.70;99.90;;;;;;5034857;28;20030;-71
2021/10/19 09:34:43;;;;;;;68.10;40.65;;;12.70;99.90;;;;;;5035063;28;20021;-71
2021/10/19 09:37:11;;;;;;;69.40;40.55;;;12.70;99.90;;;;;;5035446;28;20120;-71
2021/10/19 09:39:38;;;;;;;67.50;39.25;;;12.80;99.90;;;;;;5034292;28;20029;-71
2021/10/19 09:42:09;;;;;;;63.03;37.95;;;12.80;99.90;;;;;;5034873;28;20034;-71
2021/10/19 09:44:35;;;;;;;72.53;41.85;;;12.80;99.90;;;;;;5034168;28;20029;-71
2021/10/19 09:47:02;;;;;;;78.10;39.40;;;12.70;99.90;;;;;;5035154;28;20017;-71
2021/10/19 09:49:30;;;;;;;70.47;41.78;;;12.70;99.90;;;;;;5033212;28;20156;-71
2021/10/19 09:51:57;;;;;;;75.45;42.13;;;12.80;99.90;;;;;;5034003;28;20018;-72
2021/10/19 09:54:27;;;;;;;76.30;43.20;;;12.80;99.90;;;;;;5035070;28;20481;-71
2021/10/19 09:56:54;;;;;;;67.07;41.47;;;12.70;99.90;;;;;;5034312;28;20029;-71
2021/10/19 09:59:19;;;;;;;72.63;42.03;;;12.80;99.90;;;;;;5034381;28;20100;-72
2021/10/19 10:01:46;;;;;;;76.53;41.78;;;12.80;99.90;;;;;;5035004;28;20056;-71
2021/10/19 10:04:12;;;;;;;74.85;42.65;;;12.80;99.90;;;;;;5022363;28;20056;-72
2021/10/19 10:06:40;;;;;;;71.78;41.65;;;12.80;99.90;;;;;;5035017;28;20482;-71
2021/10/19 10:09:06;;;;;;;77.15;43.28;;;12.80;99.90;;;;;;5033670;28;20481;-71
2021/10/19 10:11:32;;;;;;;78.40;43.65;;;12.70;99.90;;;;;;5034586;28;20044;-71
2021/10/19 10:14:00;;;;;;;76.05;43.53;;;12.70;99.90;;;;;;5034133;28;20489;-71
2021/10/19 10:16:26;;;;;;;86.93;45.70;;;12.70;99.90;;;;;;5034022;28;20024;-71
2021/10/19 10:18:52;;;;;;;78.70;44.38;;;12.70;99.90;;;;;;5034211;28;20452;-71
2021/10/19 10:21:21;;;;;;;78.55;45.30;;;12.80;99.90;;;;;;5033556;28;20032;-71
2021/10/19 10:23:59;;;;;;;70.40;42.58;;;12.80;99.90;;;;;;5034579;28;20469;-71
2021/10/19 10:26:32;;;;;;;75.63;42.95;;;12.70;99.90;;;;;;5034475;28;20076;-72
2021/10/19 10:29:13;;;;;;;75.53;43.88;;;12.80;99.90;;;;;;5033749;28;20100;-72
2021/10/19 10:31:47;;;;;;;81.88;47.38;;;12.80;99.90;;;;;;5032217;28;20053;-72
2021/10/19 10:34:14;;;;;;;84.55;44.72;;;12.80;99.90;;;;;;5033554;28;20439;-72
2021/10/19 10:36:42;;;;;;;78.00;45.22;;;12.90;99.90;;;;;;5032852;28;20029;-72
2021/10/19 10:39:08;;;;;;;75.13;43.78;;;12.90;99.90;;;;;;5030374;28;20029;-71
2021/10/19 10:41:45;;;;;;;87.35;45.60;;;12.90;99.90;;;;;;5033047;28;20041;-70
2021/10/19 10:44:13;;;;;;;75.15;44.97;;;12.90;99.90;;;;;;5032228;28;20499;-70
2021/10/19 10:46:40;;;;;;;67.85;41.92;;;12.90;99.90;;;;;;5022066;28;20500;-71
2021/10/19 10:49:11;;;;;;;78.63;45.30;;;13.00;99.90;;;;;;5031412;28;20417;-71
2021/10/19 10:51:39;;;;;;;73.43;44.38;;;13.00;99.90;;;;;;5032269;28;20026;-72
2021/10/19 10:54:05;;;;;;;83.47;45.95;;;13.00;99.90;;;;;;5032018;28;20025;-72
2021/10/19 10:56:46;;;;;;;86.30;46.90;;;13.00;99.90;;;;;;5033156;28;20029;-72
2021/10/19 10:59:22;;;;;;;85.75;46.85;;;13.00;99.90;;;;;;5032326;28;20029;-72
2021/10/19 11:01:48;;;;;;;72.78;44.22;;;13.00;99.90;;;;;;5033220;28;20017;-72
2021/10/19 11:04:13;;;;;;;81.68;45.08;;;13.00;99.90;;;;;;5032630;28;20037;-72
2021/10/19 11:06:40;;;;;;;80.53;44.85;;;13.10;99.90;;;;;;5032669;28;20028;-72
2021/10/19 11:09:15;;;;;;;73.57;43.30;;;13.10;99.90;;;;;;5032404;28;20033;-72
2021/10/19 11:11:46;;;;;;;86.57;47.10;;;13.10;99.90;;;;;;5033104;28;20029;-72
2021/10/19 11:14:17;;;;;;;87.55;45.67;;;13.10;99.90;;;;;;5033143;28;20017;-72
2021/10/19 11:16:45;;;;;;;85.47;45.72;;;13.10;99.90;;;;;;5033003;28;20022;-72
2021/10/19 11:19:40;;;;;;;70.25;43.38;;;13.10;99.90;;;;;;5032563;28;20686;-72
2021/10/19 11:22:08;;;;;;;80.18;43.90;;;13.10;99.90;;;;;;5008793;28;20493;-72
2021/10/19 11:24:36;;;;;;;83.15;42.35;;;13.10;99.90;;;;;;5031653;28;20036;-72
2021/10/19 11:27:03;;;;;;;75.90;45.88;;;13.20;99.90;;;;;;5032695;28;20037;-72
2021/10/19 11:29:33;;;;;;;65.70;43.05;;;13.10;99.90;;;;;;5032863;28;20132;-72
2021/10/19 11:32:00;;;;;;;73.20;44.97;;;13.20;99.90;;;;;;5031601;28;20083;-72
2021/10/19 11:34:25;;;;;;;68.65;41.70;;;13.20;99.90;;;;;;5033289;28;20029;-72
2021/10/19 11:36:51;;;;;;;69.18;40.85;;;13.20;99.90;;;;;;5033161;28;20558;-72
2021/10/19 11:39:17;;;;;;;78.97;42.20;;;13.20;99.90;;;;;;5032174;28;20112;-72
2021/10/19 11:41:56;;;;;;;79.38;43.42;;;13.20;99.90;;;;;;5032742;28;20392;-72
2021/10/19 11:44:22;;;;;;;70.53;41.83;;;13.20;99.90;;;;;;5032357;28;20029;-72
2021/10/19 11:46:48;;;;;;;75.22;40.95;;;13.30;99.90;;;;;;5031750;28;20026;-72
2021/10/19 11:49:16;;;;;;;58.50;38.83;;;13.30;99.90;;;;;;5033028;28;20080;-72
2021/10/19 11:51:44;;;;;;;77.03;41.30;;;13.30;99.90;;;;;;5032073;28;20100;-72
2021/10/19 11:54:10;;;;;;;58.70;38.40;;;13.40;99.90;;;;;;5030948;28;20507;-72
2021/10/19 11:56:35;;;;;;;64.03;39.28;;;13.40;99.90;;;;;;5032413;28;20041;-72
2021/10/19 11:59:04;;;;;;;70.78;39.05;;;13.40;99.90;;;;;;5033005;28;20099;-72
2021/10/19 12:01:42;;;;;;;74.13;41.90;;;13.40;99.90;;;;;;5032404;28;20105;-72
2021/10/19 12:04:12;;;;;;;67.00;39.53;;;13.40;99.90;;;;;;5025387;28;20053;-72
2021/10/19 12:06:43;;;;;;;65.18;38.72;;;13.40;99.90;;;;;;5032091;28;20358;-72
2021/10/19 12:09:22;;;;;;;60.92;40.40;;;13.40;99.90;;;;;;5030321;28;20059;-72
2021/10/19 12:11:51;;;;;;;73.75;39.75;;;13.40;99.90;;;;;;5032414;28;20139;-72
2021/10/19 12:14:19;;;;;;;69.10;38.47;;;13.50;99.90;;;;;;5032421;28;20029;-72
2021/10/19 12:16:53;;;;;;;59.40;37.20;;;13.40;99.90;;;;;;5030203;28;20033;-72
2021/10/19 12:19:18;;;;;;;63.03;38.72;;;13.50;99.90;;;;;;5018622;28;20038;-72
2021/10/19 12:21:53;;;;;;;68.63;37.95;;;13.40;99.90;;;;;;5013161;28;20038;-72
2021/10/19 12:24:19;;;;;;;63.95;38.83;;;13.40;99.90;;;;;;5020400;28;20022;-72
2021/10/19 12:26:45;;;;;;;61.30;36.90;;;13.40;99.90;;;;;;5031458;28;20018;-72